Time;durP1;ratioP1;P1;durP2;ratioP2;P2;SDS_P1;SDS_P2;PMS_P1;PMS_P2;Temp;Humidity;BMP_temperature;BMP_pressure;BME280_temperature;BME280_humidity;BME280_pressure;Samples;Min_cycle;Max_cycle;Signal;HPM_P1;HPM_P2
2022/08/31 00:03:58;;;;;;;6.10;1.50;;;;;;;15.37;83.79;100961.24;83616;1342;24307;-71
2022/08/31 00:06:09;;;;;;;3.20;1.20;;;;;;;15.32;83.54;100961.48;83627;1344;22605;-74
2022/08/31 00:08:22;;;;;;;1.80;1.60;;;;;;;15.28;83.73;100966.43;83620;1344;22632;-74
2022/08/31 00:10:40;;;;;;;3.40;1.40;;;;;;;15.24;83.92;100966.44;83630;1344;22732;-72
2022/08/31 00:12:51;;;;;;;2.80;1.20;;;;;;;15.18;83.87;100965.30;83589;1345;22650;-70
2022/08/31 00:15:06;;;;;;;3.40;1.30;;;;;;;15.14;84.17;100963.41;83549;1341;24288;-70
2022/08/31 00:17:18;;;;;;;2.10;1.20;;;;;;;15.10;84.03;100966.05;83533;1345;25664;-75
2022/08/31 00:19:35;;;;;;;5.70;1.70;;;;;;;15.03;84.14;100970.58;83628;1345;24211;-72
2022/08/31 00:21:48;;;;;;;2.50;1.60;;;;;;;14.98;84.26;100977.14;83627;1344;22589;-72
2022/08/31 00:23:59;;;;;;;2.50;1.50;;;;;;;14.92;84.15;100977.41;83640;1344;25355;-73
2022/08/31 00:26:12;;;;;;;2.80;1.00;;;;;;;14.87;84.21;100977.13;83552;1344;25611;-72
2022/08/31 00:28:27;;;;;;;4.70;1.40;;;;;;;14.83;84.25;100976.45;83536;1346;23999;-72
2022/08/31 00:30:40;;;;;;;4.20;1.50;;;;;;;14.77;84.27;100978.86;83494;1346;22913;-71
2022/08/31 00:32:50;;;;;;;3.30;1.40;;;;;;;14.71;84.46;100979.08;83528;1345;22600;-72
2022/08/31 00:34:58;;;;;;;;;;;;;;;14.64;84.34;100980.98;83563;1346;22629;-72
2022/08/31 00:37:09;;;;;;;2.80;1.90;;;;;;;14.56;84.50;100984.35;83544;1345;24195;-72
2022/08/31 00:39:21;;;;;;;2.00;1.20;;;;;;;14.53;84.53;100984.66;83559;1346;22616;-72
2022/08/31 00:41:37;;;;;;;2.00;1.20;;;;;;;14.48;84.70;100986.61;83556;1341;22619;-72
2022/08/31 00:43:56;;;;;;;4.00;2.40;;;;;;;14.44;84.88;100984.30;83574;1341;22643;-71
2022/08/31 00:46:07;;;;;;;3.90;1.50;;;;;;;14.40;84.86;100986.08;83551;1346;25487;-73
2022/08/31 00:48:18;;;;;;;2.30;1.40;;;;;;;14.36;84.95;100983.60;83551;1344;22866;-75
2022/08/31 00:50:33;;;;;;;1.40;1.30;;;;;;;14.32;85.22;100988.36;83583;1345;22710;-74
2022/08/31 00:52:44;;;;;;;4.30;1.70;;;;;;;14.28;85.19;100985.54;83571;1345;23076;-75
2022/08/31 00:54:57;;;;;;;1.40;1.20;;;;;;;14.22;85.29;100988.42;83560;1344;22662;-75
2022/08/31 00:57:07;;;;;;;3.30;1.30;;;;;;;14.17;85.39;100991.27;83598;1345;22615;-74
2022/08/31 00:59:17;;;;;;;;;;;;;;;14.13;85.30;100987.79;83571;1347;22695;-73
2022/08/31 01:01:29;;;;;;;1.90;1.40;;;;;;;14.04;85.49;100984.11;83533;1346;22620;-73
2022/08/31 01:03:44;;;;;;;2.80;0.90;;;;;;;14.00;85.51;100985.19;83567;1345;26550;-73
2022/08/31 01:05:59;;;;;;;1.90;1.20;;;;;;;13.94;85.59;100982.61;83546;1345;26488;-71
2022/08/31 01:08:11;;;;;;;1.30;1.10;;;;;;;13.89;85.64;100983.87;83542;1345;22612;-72
2022/08/31 01:10:24;;;;;;;3.20;1.40;;;;;;;13.86;85.79;100983.31;83610;1344;22603;-72
2022/08/31 01:12:34;;;;;;;3.00;1.00;;;;;;;13.81;85.93;100981.92;83556;1346;25320;-72
2022/08/31 01:14:44;;;;;;;7.40;2.10;;;;;;;13.78;86.05;100985.02;83580;1342;24302;-72
2022/08/31 01:17:03;;;;;;;2.80;1.40;;;;;;;13.75;86.15;100982.16;83548;1344;22631;-72
2022/08/31 01:19:22;;;;;;;2.80;1.40;;;;;;;13.73;86.12;100983.88;83551;1346;25460;-73
2022/08/31 01:21:38;;;;;;;2.70;1.40;;;;;;;13.69;86.20;100986.80;83537;1346;22739;-71
2022/08/31 01:23:56;;;;;;;2.10;1.50;;;;;;;13.65;86.17;100987.48;83559;1346;22786;-71
2022/08/31 01:26:06;;;;;;;3.50;1.70;;;;;;;13.63;86.46;100990.39;83574;1346;22643;-72
2022/08/31 01:28:19;;;;;;;5.30;1.60;;;;;;;13.59;86.59;100989.84;83486;1344;24495;-72
2022/08/31 01:30:31;;;;;;;4.90;1.40;;;;;;;13.57;86.88;100990.63;83574;1346;22647;-71
2022/08/31 01:32:42;;;;;;;4.90;2.00;;;;;;;13.56;86.95;100988.93;83509;1346;22623;-72
2022/08/31 01:34:53;;;;;;;4.80;1.60;;;;;;;13.54;87.08;100985.66;83559;1346;22616;-71
2022/08/31 01:37:05;;;;;;;2.10;1.60;;;;;;;13.55;87.43;100987.05;83563;1346;26518;-70
2022/08/31 01:39:16;;;;;;;2.60;1.80;;;;;;;13.55;87.68;100982.83;83561;1346;24324;-71
2022/08/31 01:41:27;;;;;;;4.90;1.80;;;;;;;13.55;87.89;100985.45;83552;1347;22636;-71
2022/08/31 01:43:39;;;;;;;3.30;1.40;;;;;;;13.58;88.20;100987.98;83572;1347;25966;-71
2022/08/31 01:45:50;;;;;;;3.30;1.80;;;;;;;13.60;88.58;100983.86;83585;1345;22618;-71
2022/08/31 01:48:02;;;;;;;3.20;1.70;;;;;;;13.62;88.61;100985.69;83552;1345;22679;-74
2022/08/31 01:50:16;;;;;;;2.50;1.50;;;;;;;13.64;88.67;100981.40;83531;1345;24126;-72
2022/08/31 01:52:29;;;;;;;6.00;1.80;;;;;;;13.64;88.91;100979.13;83545;1343;22753;-72
2022/08/31 01:54:42;;;;;;;5.20;2.40;;;;;;;13.67;89.14;100980.23;83539;1342;22611;-72
2022/08/31 01:56:52;;;;;;;3.40;1.80;;;;;;;13.68;89.05;100978.08;83539;1345;22601;-71
2022/08/31 01:59:05;;;;;;;5.30;1.70;;;;;;;13.69;89.27;100980.48;83554;1346;23904;-72
2022/08/31 02:01:19;;;;;;;5.40;2.10;;;;;;;13.70;89.31;100976.95;83525;1345;22651;-73
2022/08/31 02:03:29;;;;;;;3.60;1.50;;;;;;;13.71;89.22;100976.92;83548;1345;24273;-74
2022/08/31 02:05:51;;;;;;;3.50;2.40;;;;;;;13.73;89.43;100977.55;83557;1346;23067;-71
2022/08/31 02:08:00;;;;;;;3.30;1.80;;;;;;;13.72;89.64;100975.98;83556;1346;25464;-72
2022/08/31 02:10:17;;;;;;;4.10;2.00;;;;;;;13.73;89.71;100975.41;83561;1341;22994;-72
2022/08/31 02:12:29;;;;;;;3.20;1.70;;;;;;;13.74;89.67;100978.35;83533;1346;22613;-73
2022/08/31 02:14:40;;;;;;;3.10;1.60;;;;;;;13.75;89.74;100976.60;83536;1345;22610;-72
2022/08/31 02:16:58;;;;;;;1.80;1.50;;;;;;;13.75;89.81;100975.55;83552;1345;22619;-73
2022/08/31 02:19:09;;;;;;;6.80;1.50;;;;;;;13.74;89.70;100971.70;83541;1342;22612;-71
2022/08/31 02:21:19;;;;;;;2.30;1.70;;;;;;;13.73;89.80;100972.45;83565;1346;22608;-73
2022/08/31 02:23:32;;;;;;;2.30;1.60;;;;;;;13.72;89.89;100971.09;83528;1346;25399;-72
2022/08/31 02:25:42;;;;;;;5.40;1.90;;;;;;;13.71;89.96;100969.05;83565;1346;22621;-72
2022/08/31 02:27:57;;;;;;;2.20;1.50;;;;;;;13.71;90.03;100971.99;83536;1346;22664;-73
2022/08/31 02:30:10;;;;;;;3.20;1.50;;;;;;;13.71;90.11;100969.21;83506;1346;22698;-72
2022/08/31 02:32:22;;;;;;;4.30;1.60;;;;;;;13.70;90.06;100968.73;83503;1346;22650;-74
2022/08/31 02:34:33;;;;;;;6.30;2.20;;;;;;;13.68;90.01;100969.84;83568;1341;23683;-73
2022/08/31 02:36:45;;;;;;;3.40;1.70;;;;;;;13.68;90.13;100973.20;83545;1345;22723;-74
2022/08/31 02:39:00;;;;;;;2.80;1.50;;;;;;;13.67;90.07;100971.84;83539;1346;22622;-74
2022/08/31 02:41:12;;;;;;;3.80;2.20;;;;;;;13.65;90.07;100973.30;83552;1345;22656;-72
2022/08/31 02:43:27;;;;;;;7.60;2.20;;;;;;;13.63;90.04;100973.20;83551;1346;24480;-72
2022/08/31 02:45:39;;;;;;;4.80;2.00;;;;;;;13.61;90.06;100972.60;83558;1346;24325;-74
2022/08/31 02:47:52;;;;;;;2.20;1.80;;;;;;;13.61;90.16;100973.47;83552;1346;22778;-74
2022/08/31 02:50:06;;;;;;;3.80;1.90;;;;;;;13.60;90.32;100972.09;83543;1347;22609;-72
2022/08/31 02:52:24;;;;;;;3.20;1.80;;;;;;;13.62;90.40;100965.20;83541;1346;22715;-72
2022/08/31 02:54:35;;;;;;;3.20;2.00;;;;;;;13.61;90.44;100964.70;83553;1346;23925;-74
2022/08/31 02:56:45;;;;;;;3.60;1.90;;;;;;;13.62;90.39;100965.89;83546;1346;22625;-74
2022/08/31 02:59:02;;;;;;;2.90;1.80;;;;;;;13.62;90.63;100970.23;83549;1342;22628;-74
2022/08/31 03:01:16;;;;;;;3.10;1.60;;;;;;;13.61;90.45;100972.94;83538;1347;22629;-72
2022/08/31 03:03:33;;;;;;;5.00;1.80;;;;;;;13.61;90.60;100972.80;83531;1347;22697;-71
2022/08/31 03:05:46;;;;;;;4.00;2.10;;;;;;;13.62;90.62;100976.05;83578;1346;22632;-71
2022/08/31 03:07:57;;;;;;;1.80;1.50;;;;;;;13.64;90.78;100974.75;83529;1345;25456;-71
2022/08/31 03:10:13;;;;;;;3.70;1.60;;;;;;;13.66;90.75;100975.91;83541;1345;24309;-72
2022/08/31 03:12:26;;;;;;;2.50;1.60;;;;;;;13.66;90.62;100973.08;83548;1345;22784;-75
2022/08/31 03:14:39;;;;;;;5.80;1.90;;;;;;;13.67;90.64;100975.84;83557;1341;22629;-73
2022/08/31 03:16:53;;;;;;;1.70;1.50;;;;;;;13.67;90.57;100976.35;83540;1347;22626;-74
2022/08/31 03:19:04;;;;;;;3.60;1.50;;;;;;;13.67;90.53;100979.35;83549;1346;23059;-74
2022/08/31 03:21:15;;;;;;;4.20;1.30;;;;;;;13.67;90.64;100977.78;83475;1347;23167;-74
2022/08/31 03:23:30;;;;;;;2.00;1.40;;;;;;;13.67;90.56;100980.42;83520;1346;23945;-74
2022/08/31 03:25:43;;;;;;;5.10;2.30;;;;;;;13.67;90.55;100982.52;83275;1346;454636;-72
2022/08/31 03:27:53;;;;;;;3.20;1.70;;;;;;;13.67;90.50;100981.98;83524;1345;22588;-70
2022/08/31 03:30:10;;;;;;;3.00;1.80;;;;;;;13.68;90.62;100982.63;83566;1345;22616;-74
2022/08/31 03:32:22;;;;;;;2.70;1.40;;;;;;;13.68;90.57;100979.81;83555;1344;22596;-75
2022/08/31 03:34:32;;;;;;;3.30;1.20;;;;;;;13.68;90.62;100981.57;83570;1345;23955;-71
2022/08/31 03:36:44;;;;;;;3.10;1.60;;;;;;;13.68;90.49;100982.97;83573;1341;22673;-72
2022/08/31 03:39:00;;;;;;;3.20;1.50;;;;;;;13.67;90.62;100981.10;83558;1341;23080;-72
2022/08/31 03:41:15;;;;;;;4.20;1.70;;;;;;;13.68;90.64;100986.52;83562;1346;25312;-72
2022/08/31 03:43:25;;;;;;;1.90;1.50;;;;;;;13.68;90.61;100989.98;83543;1346;23997;-72
2022/08/31 03:45:39;;;;;;;3.50;1.40;;;;;;;13.68;90.59;100990.34;83538;1345;25342;-74
2022/08/31 03:47:48;;;;;;;3.20;1.80;;;;;;;13.68;90.52;100993.50;83530;1347;22638;-73
2022/08/31 03:49:59;;;;;;;2.00;1.80;;;;;;;13.69;90.57;100995.24;83544;1346;22604;-73
2022/08/31 03:52:09;;;;;;;2.90;1.80;;;;;;;13.71;90.65;100996.05;83526;1341;22626;-73
2022/08/31 03:54:35;;;;;;;2.30;1.80;;;;;;;13.72;90.67;100995.83;83552;1346;22610;-71
2022/08/31 03:56:49;;;;;;;4.90;2.10;;;;;;;13.73;90.64;100992.43;83554;1341;22624;-71
2022/08/31 03:59:01;;;;;;;3.30;2.00;;;;;;;13.75;90.83;101000.09;83570;1346;22613;-71
2022/08/31 04:01:18;;;;;;;4.50;1.80;;;;;;;13.78;90.74;100996.98;83543;1346;22890;-71
2022/08/31 04:03:30;;;;;;;3.00;1.70;;;;;;;13.79;90.71;100999.56;83550;1346;22610;-71
2022/08/31 04:05:44;;;;;;;3.90;1.30;;;;;;;13.81;90.66;100996.33;83561;1346;25468;-71
2022/08/31 04:07:58;;;;;;;4.00;1.50;;;;;;;13.83;90.77;100994.82;83543;1345;25286;-72
2022/08/31 04:10:10;;;;;;;2.60;1.60;;;;;;;13.85;90.93;100994.95;83505;1349;22940;-74
2022/08/31 04:12:23;;;;;;;3.70;1.50;;;;;;;13.86;90.70;100996.28;83562;1342;22621;-74
2022/08/31 04:14:34;;;;;;;3.50;1.50;;;;;;;13.89;90.91;100999.48;83549;1345;22636;-71
2022/08/31 04:16:47;;;;;;;1.60;1.30;;;;;;;13.93;90.77;100999.83;83443;1347;22635;-72
2022/08/31 04:19:00;;;;;;;4.80;1.60;;;;;;;13.97;90.89;100999.14;83540;1343;24397;-71
2022/08/31 04:21:19;;;;;;;3.20;1.70;;;;;;;14.01;90.84;101000.40;83564;1345;22608;-71
2022/08/31 04:23:31;;;;;;;5.20;1.80;;;;;;;14.03;90.84;101000.30;83555;1345;25476;-72
2022/08/31 04:25:44;;;;;;;2.80;1.20;;;;;;;14.07;90.82;101008.39;83545;1347;22622;-72
2022/08/31 04:27:57;;;;;;;4.70;2.10;;;;;;;14.09;90.74;101008.98;83533;1347;24408;-72
2022/08/31 04:30:15;;;;;;;3.90;1.50;;;;;;;14.12;90.68;101013.60;83534;1344;22689;-73
2022/08/31 04:32:27;;;;;;;3.50;1.30;;;;;;;14.14;90.58;101012.29;83557;1345;22635;-72
2022/08/31 04:34:40;;;;;;;2.30;1.60;;;;;;;14.17;90.67;101015.98;83553;1346;22637;-73
2022/08/31 04:36:53;;;;;;;3.00;1.30;;;;;;;14.22;90.76;101017.73;83546;1346;22637;-74
2022/08/31 04:39:17;;;;;;;2.70;2.00;;;;;;;14.26;90.64;101023.38;83561;1345;22628;-74
2022/08/31 04:41:34;;;;;;;2.10;1.20;;;;;;;14.29;90.54;101026.21;83554;1342;22615;-74
2022/08/31 04:43:51;;;;;;;2.80;1.70;;;;;;;14.31;90.53;101025.60;83490;1346;22673;-74
2022/08/31 04:46:01;;;;;;;2.00;1.30;;;;;;;14.35;90.60;101025.45;83490;1347;22718;-73
2022/08/31 04:48:12;;;;;;;2.20;1.80;;;;;;;14.40;90.52;101030.33;83470;1346;22613;-75
2022/08/31 04:50:29;;;;;;;3.30;1.60;;;;;;;14.44;90.56;101033.83;83462;1345;26563;-74
2022/08/31 04:52:42;;;;;;;1.90;1.30;;;;;;;14.49;90.44;101031.73;83520;1345;22617;-74
2022/08/31 04:54:52;;;;;;;4.90;1.90;;;;;;;14.51;90.06;101028.80;83557;1345;22605;-74
2022/08/31 04:57:04;;;;;;;2.20;1.30;;;;;;;14.53;90.03;101030.29;83526;1346;22605;-74
2022/08/31 04:59:16;;;;;;;2.10;1.30;;;;;;;14.57;90.05;101034.33;83557;1342;22874;-72
2022/08/31 05:01:32;;;;;;;2.10;1.30;;;;;;;14.63;90.01;101038.48;83489;1347;24281;-74
2022/08/31 05:03:51;;;;;;;4.10;1.60;;;;;;;14.66;89.89;101040.06;83552;1345;23874;-74
2022/08/31 05:06:07;;;;;;;3.60;1.30;;;;;;;14.71;89.72;101037.59;83542;1347;24429;-72
2022/08/31 05:08:19;;;;;;;1.90;1.40;;;;;;;14.77;89.50;101036.77;83539;1347;22713;-71
2022/08/31 05:10:31;;;;;;;4.30;2.40;;;;;;;14.84;89.57;101035.25;83471;1346;22926;-74
2022/08/31 05:12:43;;;;;;;3.40;1.50;;;;;;;14.92;89.55;101030.80;83492;1342;22709;-74
2022/08/31 05:14:56;;;;;;;3.60;2.00;;;;;;;15.01;89.33;101031.48;83484;1346;22650;-72
2022/08/31 05:17:05;;;;;;;;;;;;;;;15.08;89.18;101031.17;83491;1346;22592;-71
2022/08/31 05:19:18;;;;;;;5.60;1.40;;;;;;;15.16;89.15;101029.01;83546;1346;22678;-72
2022/08/31 05:21:34;;;;;;;1.70;1.30;;;;;;;15.27;88.69;101029.59;83548;1343;22789;-71
2022/08/31 05:23:49;;;;;;;6.30;2.00;;;;;;;15.36;88.40;101030.56;83559;1341;24770;-71
2022/08/31 05:26:02;;;;;;;3.30;1.60;;;;;;;15.44;87.85;101030.87;83556;1341;22999;-73
2022/08/31 05:28:24;;;;;;;2.40;1.30;;;;;;;15.57;87.69;101033.77;83552;1344;22642;-71
2022/08/31 05:30:35;;;;;;;;;;;;;;;15.69;87.08;101033.75;83539;1346;22628;-72
2022/08/31 05:32:47;;;;;;;3.60;1.30;;;;;;;15.79;87.15;101039.62;83508;1346;22929;-72
2022/08/31 05:35:01;;;;;;;2.00;1.00;;;;;;;15.92;86.62;101042.46;83521;1346;25615;-72
2022/08/31 05:37:11;;;;;;;3.20;1.30;;;;;;;16.04;86.18;101043.62;83491;1346;22606;-73
2022/08/31 05:39:26;;;;;;;2.90;1.40;;;;;;;16.19;85.66;101042.14;83564;1346;22614;-74
2022/08/31 05:41:39;;;;;;;2.90;1.40;;;;;;;16.45;84.62;101048.04;83560;1345;24706;-74
2022/08/31 05:43:49;;;;;;;4.40;1.20;;;;;;;16.69;84.23;101048.95;83536;1342;22620;-75
2022/08/31 05:45:57;;;;;;;;;;;;;;;16.99;83.83;101045.44;83559;1347;24435;-74
2022/08/31 05:48:09;;;;;;;3.60;1.20;;;;;;;17.50;84.13;101041.56;83439;1347;23965;-71
2022/08/31 05:50:25;;;;;;;4.40;1.50;;;;;;;17.74;81.36;101041.83;83561;1347;25952;-74
2022/08/31 05:52:37;;;;;;;3.20;1.10;;;;;;;17.88;80.12;101047.91;83556;1345;22638;-74
2022/08/31 05:54:50;;;;;;;6.00;1.20;;;;;;;18.14;79.39;101050.63;83562;1344;23988;-72
2022/08/31 05:57:10;;;;;;;2.80;1.20;;;;;;;18.27;78.36;101042.73;83553;1345;22622;-72
2022/08/31 05:59:23;;;;;;;2.50;1.10;;;;;;;18.62;77.56;101046.31;83487;1346;22634;-72
2022/08/31 06:01:34;;;;;;;2.00;1.00;;;;;;;19.04;74.81;101050.81;83485;1349;22618;-69
2022/08/31 06:03:50;;;;;;;4.30;1.00;;;;;;;19.22;73.07;101050.02;83492;1346;22651;-72
2022/08/31 06:06:00;;;;;;;3.50;1.10;;;;;;;19.48;72.64;101058.11;83475;1347;22665;-72
2022/08/31 06:08:12;;;;;;;3.50;1.00;;;;;;;19.59;70.15;101055.63;83513;1346;22810;-71
2022/08/31 06:10:25;;;;;;;2.10;1.00;;;;;;;19.64;69.56;101060.30;83504;1346;22602;-73
2022/08/31 06:12:36;;;;;;;1.60;0.70;;;;;;;19.66;69.51;101063.36;83569;1342;22632;-74
2022/08/31 06:14:47;;;;;;;4.20;1.30;;;;;;;19.69;68.95;101067.19;83541;1344;22680;-73
2022/08/31 06:16:59;;;;;;;4.00;1.30;;;;;;;19.68;68.67;101072.95;83526;1346;22681;-74
2022/08/31 06:19:09;;;;;;;2.80;1.00;;;;;;;19.60;67.92;101078.92;83567;1345;24242;-71
2022/08/31 06:21:22;;;;;;;1.50;0.90;;;;;;;19.47;67.53;101082.23;83528;1346;26561;-72
2022/08/31 06:23:33;;;;;;;2.00;1.20;;;;;;;19.34;67.32;101083.61;83471;1346;22937;-72
2022/08/31 06:25:46;;;;;;;1.80;1.10;;;;;;;19.24;67.47;101082.46;83539;1347;24301;-74
2022/08/31 06:28:00;;;;;;;7.00;1.50;;;;;;;19.29;67.60;101080.86;83472;1350;24294;-73
2022/08/31 06:30:18;;;;;;;1.90;1.10;;;;;;;19.46;68.23;101083.90;83554;1345;24388;-75
2022/08/31 06:32:34;;;;;;;2.80;1.00;;;;;;;19.71;67.53;101077.34;83479;1344;23176;-74
2022/08/31 06:34:45;;;;;;;3.70;1.20;;;;;;;19.73;67.01;101072.63;83567;1347;25680;-73
2022/08/31 06:36:56;;;;;;;2.70;1.20;;;;;;;19.84;67.51;101072.93;83544;1347;22822;-69
2022/08/31 06:39:06;;;;;;;3.30;1.00;;;;;;;19.98;66.39;101072.73;83541;1347;22628;-71
2022/08/31 06:41:21;;;;;;;3.30;1.00;;;;;;;20.10;65.84;101073.70;83574;1345;24303;-73
2022/08/31 06:43:31;;;;;;;6.10;1.60;;;;;;;20.42;65.85;101074.25;83545;1341;22959;-74
2022/08/31 06:45:53;;;;;;;3.00;0.80;;;;;;;20.75;64.05;101073.06;83528;1346;22616;-70
2022/08/31 06:48:04;;;;;;;2.70;1.10;;;;;;;20.76;63.54;101075.27;83479;1348;22699;-70
2022/08/31 06:50:22;;;;;;;2.90;0.90;;;;;;;20.77;62.72;101077.13;83438;1346;25528;-69
2022/08/31 06:52:36;;;;;;;1.00;0.90;;;;;;;20.79;61.86;101074.59;83479;1342;22644;-70
2022/08/31 06:54:46;;;;;;;4.30;1.00;;;;;;;20.86;62.61;101066.20;83504;1346;22828;-72
2022/08/31 06:57:04;;;;;;;2.30;0.90;;;;;;;21.00;61.27;101064.05;83464;1346;22604;-73
2022/08/31 06:59:20;;;;;;;2.00;1.40;;;;;;;21.00;59.76;101060.13;83533;1343;22859;-71
2022/08/31 07:01:31;;;;;;;1.70;1.20;;;;;;;20.99;60.06;101061.27;83524;1347;24262;-72
2022/08/31 07:03:44;;;;;;;2.50;1.00;;;;;;;21.07;60.74;101065.68;83551;1347;25457;-72
2022/08/31 07:05:57;;;;;;;6.80;1.50;;;;;;;21.16;59.09;101068.07;83442;1346;26604;-69
2022/08/31 07:08:11;;;;;;;3.90;1.20;;;;;;;21.13;58.80;101067.48;83557;1346;22641;-73
2022/08/31 07:10:24;;;;;;;5.30;1.10;;;;;;;21.59;59.38;101067.94;83541;1345;22818;-70
2022/08/31 07:12:45;;;;;;;3.50;1.00;;;;;;;22.04;57.65;101064.80;83563;1342;22613;-70
2022/08/31 07:15:01;;;;;;;2.70;1.00;;;;;;;22.07;55.97;101065.81;83571;1346;22614;-72
2022/08/31 07:17:28;;;;;;;5.10;0.70;;;;;;;22.17;55.27;101068.86;83544;1347;22702;-67
2022/08/31 07:19:56;;;;;;;3.30;1.00;;;;;;;22.27;53.52;101071.07;83558;1347;24360;-72
2022/08/31 07:22:20;;;;;;;0.80;0.60;;;;;;;22.21;52.83;101071.55;83483;1350;22644;-67
2022/08/31 07:24:53;;;;;;;1.20;0.70;;;;;;;22.43;52.81;101068.08;83451;1346;22944;-68
2022/08/31 07:27:11;;;;;;;1.20;0.60;;;;;;;22.65;52.88;101066.95;83530;1346;25331;-71
2022/08/31 07:29:31;;;;;;;0.60;0.60;;;;;;;23.06;51.62;101065.35;83486;1347;22641;-72
2022/08/31 07:31:45;;;;;;;1.40;0.80;;;;;;;23.40;50.40;101064.90;83559;1342;24242;-72
2022/08/31 07:34:01;;;;;;;1.70;0.70;;;;;;;23.40;49.55;101069.70;83539;1347;22605;-73
2022/08/31 07:36:16;;;;;;;1.90;1.10;;;;;;;23.46;48.47;101069.23;83555;1341;22703;-72
2022/08/31 07:43:31;;;;;;;0.80;0.60;;;;;;;23.64;46.88;101075.44;83546;1342;22637;-69
2022/08/31 07:45:43;;;;;;;2.40;1.20;;;;;;;23.77;47.30;101073.36;83543;1346;24356;-73
2022/08/31 07:47:58;;;;;;;2.10;0.70;;;;;;;23.97;46.53;101070.29;83535;1349;24261;-73
2022/08/31 07:50:10;;;;;;;2.60;1.10;;;;;;;24.35;45.58;101067.08;83543;1342;22975;-74
2022/08/31 07:52:23;;;;;;;3.60;0.80;;;;;;;24.91;45.78;101067.92;83477;1347;22623;-74
2022/08/31 07:54:33;;;;;;;4.10;0.70;;;;;;;25.52;43.83;101066.66;83566;1347;22676;-72
2022/08/31 07:56:45;;;;;;;2.00;0.70;;;;;;;26.37;44.48;101068.39;83539;1346;22640;-72
2022/08/31 07:58:56;;;;;;;5.90;1.00;;;;;;;27.21;42.16;101071.30;83553;1341;22950;-71
2022/08/31 08:01:09;;;;;;;10.90;1.70;;;;;;;27.97;40.55;101065.92;83528;1347;22606;-71
2022/08/31 08:03:19;;;;;;;1.90;0.80;;;;;;;28.61;38.54;101059.02;83544;1345;22624;-71
2022/08/31 08:05:37;;;;;;;0.60;0.60;;;;;;;29.08;37.43;101061.59;83579;1345;22602;-72
2022/08/31 08:07:57;;;;;;;1.50;0.70;;;;;;;29.54;36.27;101058.06;83565;1343;22613;-71
2022/08/31 08:10:20;;;;;;;1.10;0.40;;;;;;;29.90;34.96;101059.20;83588;1343;23911;-71
2022/08/31 08:12:35;;;;;;;2.20;0.50;;;;;;;30.26;34.57;101065.15;83472;1347;22702;-71
2022/08/31 08:14:51;;;;;;;1.50;0.70;;;;;;;30.62;33.41;101067.16;83509;1347;22657;-73
2022/08/31 08:17:05;;;;;;;1.00;0.50;;;;;;;30.69;31.78;101069.02;83518;1345;24000;-74
2022/08/31 08:19:19;;;;;;;2.60;0.60;;;;;;;30.83;32.03;101071.60;83457;1344;24326;-72
2022/08/31 08:21:42;;;;;;;1.60;0.50;;;;;;;31.17;30.96;101076.56;83546;1341;22709;-71
2022/08/31 08:24:02;;;;;;;0.50;0.50;;;;;;;31.40;31.13;101078.45;83536;1347;22612;-72
2022/08/31 08:26:17;;;;;;;0.50;0.30;;;;;;;31.77;30.73;101080.15;83564;1346;22612;-70
2022/08/31 08:28:44;;;;;;;1.70;0.90;;;;;;;32.12;30.65;101081.06;83526;1346;24279;-70
2022/08/31 08:31:27;;;;;;;2.30;0.90;;;;;;;32.70;27.97;101078.44;83544;1347;22685;-70
2022/08/31 08:33:40;;;;;;;1.10;0.50;;;;;;;32.93;27.51;101081.67;83553;1347;26493;-70
2022/08/31 08:35:59;;;;;;;0.70;0.50;;;;;;;33.08;26.37;101078.33;83548;1346;22609;-74
2022/08/31 08:38:22;;;;;;;0.90;0.70;;;;;;;33.09;25.47;101080.25;83558;1345;22641;-73
2022/08/31 08:40:45;;;;;;;2.20;0.60;;;;;;;33.03;26.69;101077.68;83573;1349;24431;-73
2022/08/31 08:43:15;;;;;;;1.50;0.70;;;;;;;33.20;25.93;101076.18;83614;1349;22862;-70
2022/08/31 08:49:51;;;;;;;4.30;0.80;;;;;;;33.58;24.82;101080.02;83658;1324;22624;-73
2022/08/31 08:52:26;;;;;;;1.70;0.40;;;;;;;33.39;24.58;101084.36;83659;1343;25774;-70
2022/08/31 08:54:58;;;;;;;2.20;0.90;;;;;;;32.80;25.31;101082.52;83648;1346;22636;-71
2022/08/31 08:57:28;;;;;;;0.90;0.50;;;;;;;32.64;24.86;101078.10;83636;1344;22618;-70
2022/08/31 08:59:48;;;;;;;0.50;0.40;;;;;;;32.71;25.09;101075.08;83693;1341;22718;-71
2022/08/31 09:02:09;;;;;;;1.00;0.70;;;;;;;32.93;24.77;101076.20;83656;1347;22854;-74
2022/08/31 09:04:49;;;;;;;0.80;0.40;;;;;;;32.97;24.07;101076.13;83499;1346;22615;-72
2022/08/31 09:07:40;;;;;;;0.80;0.40;;;;;;;32.94;23.85;101078.04;83693;1344;22727;-73
2022/08/31 09:10:24;;;;;;;0.70;0.60;;;;;;;32.65;24.08;101080.65;83664;1344;22623;-73
2022/08/31 09:12:56;;;;;;;2.60;1.00;;;;;;;32.76;23.98;101079.23;83523;1346;25648;-74
2022/08/31 09:16:00;;;;;;;1.90;0.50;;;;;;;32.89;24.31;101083.23;83508;1347;23152;-74
2022/08/31 09:18:58;;;;;;;1.60;0.80;;;;;;;33.17;24.07;101081.37;83493;1346;22638;-72
2022/08/31 09:21:29;;;;;;;1.40;0.40;;;;;;;33.31;23.38;101085.83;83629;1345;22613;-71
2022/08/31 09:24:12;;;;;;;0.90;0.50;;;;;;;33.32;23.90;101083.55;83507;1345;22609;-72
2022/08/31 09:26:34;;;;;;;0.60;0.30;;;;;;;33.36;23.53;101087.00;83662;1347;22667;-74
2022/08/31 09:28:57;;;;;;;3.00;0.70;;;;;;;33.20;23.26;101079.20;83648;1342;22667;-74
2022/08/31 09:31:36;;;;;;;19.20;3.00;;;;;;;32.97;23.99;101080.30;83533;1347;24360;-71
2022/08/31 09:33:54;;;;;;;5.10;0.70;;;;;;;33.05;23.23;101077.16;83661;1344;23253;-71
2022/08/31 09:36:21;;;;;;;1.00;0.50;;;;;;;32.93;23.80;101078.20;83597;1344;22662;-74
2022/08/31 09:38:42;;;;;;;1.40;0.70;;;;;;;32.52;24.01;101074.52;83520;1347;22743;-74
2022/08/31 09:40:55;;;;;;;5.50;1.10;;;;;;;32.31;25.81;101068.54;83649;1347;22750;-70
2022/08/31 09:43:12;;;;;;;15.20;2.90;;;;;;;32.29;25.73;101065.64;83661;1347;22677;-71
2022/08/31 09:45:35;;;;;;;14.00;1.70;;;;;;;32.09;25.34;101066.41;83667;1344;22618;-70
2022/08/31 09:47:51;;;;;;;1.30;0.50;;;;;;;31.60;25.08;101070.20;83623;1344;22606;-70
2022/08/31 09:50:09;;;;;;;0.80;0.40;;;;;;;30.92;24.54;101068.80;83648;1347;23996;-70
2022/08/31 09:55:20;;;;;;;1.00;0.40;;;;;;;29.62;25.72;101072.58;83473;1347;22627;-73
2022/08/31 09:57:56;;;;;;;2.30;0.70;;;;;;;28.87;26.53;101071.61;83625;1347;22698;-74
2022/08/31 10:00:15;;;;;;;1.60;0.50;;;;;;;28.56;27.42;101066.77;83669;1345;24245;-74
2022/08/31 10:02:36;;;;;;;0.40;0.40;;;;;;;28.29;27.34;101070.11;83650;1343;22632;-74
2022/08/31 10:04:55;;;;;;;1.10;0.40;;;;;;;27.72;27.03;101074.92;83682;1347;22613;-74
2022/08/31 10:07:10;;;;;;;4.90;0.60;;;;;;;27.30;27.93;101071.31;83652;1346;22659;-71
2022/08/31 10:09:36;;;;;;;1.90;0.60;;;;;;;27.16;28.65;101074.87;83659;1347;22650;-69
2022/08/31 10:11:51;;;;;;;1.80;0.60;;;;;;;27.19;29.61;101069.17;83619;1344;23841;-70
2022/08/31 10:14:08;;;;;;;7.00;0.90;;;;;;;27.32;29.81;101065.56;83627;1344;22927;-69
2022/08/31 10:16:24;;;;;;;4.30;0.80;;;;;;;27.41;30.22;101062.14;83640;1343;25028;-69
2022/08/31 10:18:41;;;;;;;4.20;0.60;;;;;;;27.49;29.63;101058.13;83588;1344;22876;-70
2022/08/31 10:20:55;;;;;;;1.40;0.40;;;;;;;27.39;28.59;101061.66;83636;1343;22649;-73
2022/08/31 10:23:19;;;;;;;0.70;0.50;;;;;;;27.24;28.43;101064.06;83663;1347;24319;-73
2022/08/31 10:25:36;;;;;;;0.30;0.30;;;;;;;27.13;28.05;101062.40;83535;1345;22849;-73
2022/08/31 10:27:50;;;;;;;1.30;0.50;;;;;;;26.91;27.96;101053.91;83657;1344;22624;-74
2022/08/31 10:30:07;;;;;;;2.40;0.70;;;;;;;26.77;28.72;101055.66;83659;1344;25463;-74
2022/08/31 10:32:29;;;;;;;13.50;1.90;;;;;;;26.67;27.65;101055.70;83664;1347;22613;-74
2022/08/31 10:37:11;;;;;;;0.60;0.50;;;;;;;26.42;28.68;101054.43;83657;1344;22611;-74
2022/08/31 10:39:28;;;;;;;1.80;0.50;;;;;;;26.38;28.64;101056.47;83589;1344;22707;-74
2022/08/31 10:41:47;;;;;;;0.60;0.50;;;;;;;26.09;29.01;101054.36;83638;1341;22718;-72
2022/08/31 10:44:16;;;;;;;4.00;0.70;;;;;;;25.64;28.87;101051.32;83642;1344;25294;-73
2022/08/31 10:46:27;;;;;;;1.40;0.60;;;;;;;25.28;29.70;101048.98;83666;1347;22636;-73
2022/08/31 10:48:50;;;;;;;3.00;0.60;;;;;;;24.96;30.57;101046.42;83645;1347;25463;-73
2022/08/31 10:51:21;;;;;;;2.50;0.80;;;;;;;24.64;30.70;101047.80;83564;1345;22731;-73